sensor_id;sensor_type;location;lat;lon;timestamp;temperature;humidity
10660;DHT22;5378;53.206;13.316;2022-11-03T00:00:02;6.00;99.90
10660;DHT22;5378;53.206;13.316;2022-11-03T00:02:56;6.10;99.90
10660;DHT22;5378;53.206;13.316;2022-11-03T00:05:45;6.20;99.90
10660;DHT22;5378;53.206;13.316;2022-11-03T00:08:51;6.20;99.90
10660;DHT22;5378;53.206;13.316;2022-11-03T00:11:39;6.00;99.90
10660;DHT22;5378;53.206;13.316;2022-11-03T00:14:27;6.10;99.90
10660;DHT22;5378;53.206;13.316;2022-11-03T00:17:14;6.10;99.90
10660;DHT22;5378;53.206;13.316;2022-11-03T00:20:02;5.90;99.90
10660;DHT22;5378;53.206;13.316;2022-11-03T00:22:50;5.80;99.90
10660;DHT22;5378;53.206;13.316;2022-11-03T00:25:37;5.90;99.90
10660;DHT22;5378;53.206;13.316;2022-11-03T00:28:24;5.90;99.90
10660;DHT22;5378;53.206;13.316;2022-11-03T00:31:13;5.80;99.90
10660;DHT22;5378;53.206;13.316;2022-11-03T00:34:02;5.80;99.90
10660;DHT22;5378;53.206;13.316;2022-11-03T00:36:49;5.90;99.90
10660;DHT22;5378;53.206;13.316;2022-11-03T00:39:38;5.90;99.90
10660;DHT22;5378;53.206;13.316;2022-11-03T00:42:24;5.90;99.90
10660;DHT22;5378;53.206;13.316;2022-11-03T00:45:11;5.80;99.90
10660;DHT22;5378;53.206;13.316;2022-11-03T00:47:59;5.80;99.90
10660;DHT22;5378;53.206;13.316;2022-11-03T00:51:01;5.70;99.90
10660;DHT22;5378;53.206;13.316;2022-11-03T00:53:51;5.70;99.90
10660;DHT22;5378;53.206;13.316;2022-11-03T00:56:40;5.70;99.90
10660;DHT22;5378;53.206;13.316;2022-11-03T00:59:29;5.60;99.90
10660;DHT22;5378;53.206;13.316;2022-11-03T01:02:16;5.60;99.90
10660;DHT22;5378;53.206;13.316;2022-11-03T01:05:04;5.60;99.90
10660;DHT22;5378;53.206;13.316;2022-11-03T01:08:08;5.70;99.90
10660;DHT22;5378;53.206;13.316;2022-11-03T01:10:56;5.60;99.90
10660;DHT22;5378;53.206;13.316;2022-11-03T01:14:09;5.60;99.90
10660;DHT22;5378;53.206;13.316;2022-11-03T01:16:57;5.60;99.90
10660;DHT22;5378;53.206;13.316;2022-11-03T01:19:45;5.50;99.90
10660;DHT22;5378;53.206;13.316;2022-11-03T01:22:32;5.60;99.90
10660;DHT22;5378;53.206;13.316;2022-11-03T01:25:19;5.60;99.90
10660;DHT22;5378;53.206;13.316;2022-11-03T01:28:06;5.50;99.90
10660;DHT22;5378;53.206;13.316;2022-11-03T01:30:55;5.50;99.90
10660;DHT22;5378;53.206;13.316;2022-11-03T01:33:42;5.40;99.90
10660;DHT22;5378;53.206;13.316;2022-11-03T01:36:30;5.40;99.90
10660;DHT22;5378;53.206;13.316;2022-11-03T01:39:18;5.40;99.90
10660;DHT22;5378;53.206;13.316;2022-11-03T01:42:06;5.30;99.90
10660;DHT22;5378;53.206;13.316;2022-11-03T01:44:53;5.40;99.90
10660;DHT22;5378;53.206;13.316;2022-11-03T01:47:42;5.40;99.90
10660;DHT22;5378;53.206;13.316;2022-11-03T01:50:30;5.30;99.90
10660;DHT22;5378;53.206;13.316;2022-11-03T01:53:17;5.30;99.90
10660;DHT22;5378;53.206;13.316;2022-11-03T01:56:06;5.30;99.90
10660;DHT22;5378;53.206;13.316;2022-11-03T01:58:55;5.40;99.90
10660;DHT22;5378;53.206;13.316;2022-11-03T02:01:42;5.50;99.90
10660;DHT22;5378;53.206;13.316;2022-11-03T02:04:33;5.50;99.90
10660;DHT22;5378;53.206;13.316;2022-11-03T02:07:24;5.50;99.90
10660;DHT22;5378;53.206;13.316;2022-11-03T02:10:13;5.60;99.90
10660;DHT22;5378;53.206;13.316;2022-11-03T02:13:00;5.50;99.90
10660;DHT22;5378;53.206;13.316;2022-11-03T02:15:53;5.40;99.90
10660;DHT22;5378;53.206;13.316;2022-11-03T02:18:42;5.50;99.90
10660;DHT22;5378;53.206;13.316;2022-11-03T02:21:39;5.50;99.90
10660;DHT22;5378;53.206;13.316;2022-11-03T02:24:34;5.40;99.90
10660;DHT22;5378;53.206;13.316;2022-11-03T02:27:25;5.30;99.90
10660;DHT22;5378;53.206;13.316;2022-11-03T02:30:12;5.30;99.90
10660;DHT22;5378;53.206;13.316;2022-11-03T02:33:05;5.30;99.90
10660;DHT22;5378;53.206;13.316;2022-11-03T02:36:00;5.40;99.90
10660;DHT22;5378;53.206;13.316;2022-11-03T02:38:53;5.40;99.90
10660;DHT22;5378;53.206;13.316;2022-11-03T02:41:42;5.50;99.90
10660;DHT22;5378;53.206;13.316;2022-11-03T02:44:33;5.40;99.90
10660;DHT22;5378;53.206;13.316;2022-11-03T02:47:21;5.80;99.90
10660;DHT22;5378;53.206;13.316;2022-11-03T02:50:09;5.40;99.90
10660;DHT22;5378;53.206;13.316;2022-11-03T02:52:56;5.40;99.90
10660;DHT22;5378;53.206;13.316;2022-11-03T02:55:48;5.40;99.90
10660;DHT22;5378;53.206;13.316;2022-11-03T02:58:41;5.50;99.90
10660;DHT22;5378;53.206;13.316;2022-11-03T03:01:34;5.50;99.90
10660;DHT22;5378;53.206;13.316;2022-11-03T03:04:36;5.50;99.90
10660;DHT22;5378;53.206;13.316;2022-11-03T03:07:27;5.50;99.90
10660;DHT22;5378;53.206;13.316;2022-11-03T03:10:17;5.60;99.90
10660;DHT22;5378;53.206;13.316;2022-11-03T03:13:06;5.70;99.90
10660;DHT22;5378;53.206;13.316;2022-11-03T03:16:03;5.70;99.90
10660;DHT22;5378;53.206;13.316;2022-11-03T03:18:58;5.70;99.90
10660;DHT22;5378;53.206;13.316;2022-11-03T03:21:52;5.80;99.90
10660;DHT22;5378;53.206;13.316;2022-11-03T03:24:46;5.90;99.90
10660;DHT22;5378;53.206;13.316;2022-11-03T03:27:37;5.90;99.90
10660;DHT22;5378;53.206;13.316;2022-11-03T03:30:26;6.00;99.90
10660;DHT22;5378;53.206;13.316;2022-11-03T03:33:14;6.10;99.90
10660;DHT22;5378;53.206;13.316;2022-11-03T03:36:08;6.30;99.90
10660;DHT22;5378;53.206;13.316;2022-11-03T03:39:01;6.30;99.90
10660;DHT22;5378;53.206;13.316;2022-11-03T03:41:48;6.40;99.90
10660;DHT22;5378;53.206;13.316;2022-11-03T03:44:37;6.60;99.90
10660;DHT22;5378;53.206;13.316;2022-11-03T03:47:28;6.60;99.90
10660;DHT22;5378;53.206;13.316;2022-11-03T03:50:15;6.60;99.90
10660;DHT22;5378;53.206;13.316;2022-11-03T03:53:06;6.60;99.90
10660;DHT22;5378;53.206;13.316;2022-11-03T03:55:57;6.60;99.90
10660;DHT22;5378;53.206;13.316;2022-11-03T03:58:44;6.60;99.90
10660;DHT22;5378;53.206;13.316;2022-11-03T04:01:32;6.60;99.90
10660;DHT22;5378;53.206;13.316;2022-11-03T04:04:19;6.50;99.90
10660;DHT22;5378;53.206;13.316;2022-11-03T04:07:07;6.50;99.90
10660;DHT22;5378;53.206;13.316;2022-11-03T04:10:14;6.40;99.90
10660;DHT22;5378;53.206;13.316;2022-11-03T04:13:01;6.40;99.90
10660;DHT22;5378;53.206;13.316;2022-11-03T04:16:08;6.20;99.90
10660;DHT22;5378;53.206;13.316;2022-11-03T04:19:13;6.10;99.90
10660;DHT22;5378;53.206;13.316;2022-11-03T04:22:17;6.00;99.90
10660;DHT22;5378;53.206;13.316;2022-11-03T04:25:06;5.90;99.90
10660;DHT22;5378;53.206;13.316;2022-11-03T04:27:54;5.90;99.90
10660;DHT22;5378;53.206;13.316;2022-11-03T04:30:42;5.80;99.90
10660;DHT22;5378;53.206;13.316;2022-11-03T04:33:29;5.80;99.90
10660;DHT22;5378;53.206;13.316;2022-11-03T04:36:19;5.70;99.90
10660;DHT22;5378;53.206;13.316;2022-11-03T04:39:15;5.70;99.90
10660;DHT22;5378;53.206;13.316;2022-11-03T04:42:12;5.60;99.90
10660;DHT22;5378;53.206;13.316;2022-11-03T04:45:13;5.60;99.90
10660;DHT22;5378;53.206;13.316;2022-11-03T04:48:01;5.60;99.90
10660;DHT22;5378;53.206;13.316;2022-11-03T04:50:54;5.70;99.90
10660;DHT22;5378;53.206;13.316;2022-11-03T04:53:46;5.80;99.90
10660;DHT22;5378;53.206;13.316;2022-11-03T04:56:34;5.80;99.90
10660;DHT22;5378;53.206;13.316;2022-11-03T04:59:21;5.80;99.90
10660;DHT22;5378;53.206;13.316;2022-11-03T05:02:12;5.80;99.90
10660;DHT22;5378;53.206;13.316;2022-11-03T05:05:00;5.80;99.90
10660;DHT22;5378;53.206;13.316;2022-11-03T05:07:49;5.70;99.90
10660;DHT22;5378;53.206;13.316;2022-11-03T05:10:37;5.70;99.90
10660;DHT22;5378;53.206;13.316;2022-11-03T05:13:26;5.70;99.90
10660;DHT22;5378;53.206;13.316;2022-11-03T05:16:15;5.70;99.90
10660;DHT22;5378;53.206;13.316;2022-11-03T05:19:04;5.80;99.90
10660;DHT22;5378;53.206;13.316;2022-11-03T05:21:59;5.80;99.90
10660;DHT22;5378;53.206;13.316;2022-11-03T05:24:51;5.80;99.90
10660;DHT22;5378;53.206;13.316;2022-11-03T05:27:40;5.80;99.90
10660;DHT22;5378;53.206;13.316;2022-11-03T05:30:27;5.90;99.90
10660;DHT22;5378;53.206;13.316;2022-11-03T05:33:21;5.90;99.90
10660;DHT22;5378;53.206;13.316;2022-11-03T05:36:13;5.90;99.90
10660;DHT22;5378;53.206;13.316;2022-11-03T05:39:21;5.90;99.90
10660;DHT22;5378;53.206;13.316;2022-11-03T05:42:22;5.80;99.90
10660;DHT22;5378;53.206;13.316;2022-11-03T05:45:20;5.80;99.90
10660;DHT22;5378;53.206;13.316;2022-11-03T05:48:15;5.80;99.90
10660;DHT22;5378;53.206;13.316;2022-11-03T05:51:17;5.70;99.90
10660;DHT22;5378;53.206;13.316;2022-11-03T05:54:11;5.70;99.90
10660;DHT22;5378;53.206;13.316;2022-11-03T05:57:03;5.70;99.90
10660;DHT22;5378;53.206;13.316;2022-11-03T05:59:50;5.70;99.90
10660;DHT22;5378;53.206;13.316;2022-11-03T06:02:39;5.60;99.90
10660;DHT22;5378;53.206;13.316;2022-11-03T06:05:27;5.60;99.90
10660;DHT22;5378;53.206;13.316;2022-11-03T06:08:19;5.60;99.90
10660;DHT22;5378;53.206;13.316;2022-11-03T06:11:09;5.50;99.90
10660;DHT22;5378;53.206;13.316;2022-11-03T06:14:01;5.50;99.90
10660;DHT22;5378;53.206;13.316;2022-11-03T06:16:56;5.50;99.90
10660;DHT22;5378;53.206;13.316;2022-11-03T06:19:46;5.50;99.90
10660;DHT22;5378;53.206;13.316;2022-11-03T06:22:35;5.50;99.90
10660;DHT22;5378;53.206;13.316;2022-11-03T06:25:27;5.50;99.90
10660;DHT22;5378;53.206;13.316;2022-11-03T06:28:19;5.50;99.90
10660;DHT22;5378;53.206;13.316;2022-11-03T06:31:15;5.50;99.90
10660;DHT22;5378;53.206;13.316;2022-11-03T06:34:15;5.70;99.90
10660;DHT22;5378;53.206;13.316;2022-11-03T06:37:14;5.80;99.90
10660;DHT22;5378;53.206;13.316;2022-11-03T06:43:39;5.90;99.90
10660;DHT22;5378;53.206;13.316;2022-11-03T06:46:26;6.00;99.90
10660;DHT22;5378;53.206;13.316;2022-11-03T06:49:26;6.00;99.90
10660;DHT22;5378;53.206;13.316;2022-11-03T06:52:24;6.10;99.90
10660;DHT22;5378;53.206;13.316;2022-11-03T06:55:21;6.20;99.90
10660;DHT22;5378;53.206;13.316;2022-11-03T06:58:14;6.20;99.90
10660;DHT22;5378;53.206;13.316;2022-11-03T07:01:20;6.30;99.90
10660;DHT22;5378;53.206;13.316;2022-11-03T07:04:14;6.40;99.90
10660;DHT22;5378;53.206;13.316;2022-11-03T07:07:02;6.50;99.90
10660;DHT22;5378;53.206;13.316;2022-11-03T07:09:49;6.60;99.90
10660;DHT22;5378;53.206;13.316;2022-11-03T07:12:36;6.60;99.90
10660;DHT22;5378;53.206;13.316;2022-11-03T07:15:26;6.70;99.90
10660;DHT22;5378;53.206;13.316;2022-11-03T07:18:21;6.80;99.90
10660;DHT22;5378;53.206;13.316;2022-11-03T07:21:23;6.80;99.90
10660;DHT22;5378;53.206;13.316;2022-11-03T07:24:15;6.90;99.90
10660;DHT22;5378;53.206;13.316;2022-11-03T07:27:13;7.00;99.90
10660;DHT22;5378;53.206;13.316;2022-11-03T07:30:13;7.10;99.90
10660;DHT22;5378;53.206;13.316;2022-11-03T07:33:20;7.10;99.90
10660;DHT22;5378;53.206;13.316;2022-11-03T07:36:09;7.20;99.90
10660;DHT22;5378;53.206;13.316;2022-11-03T07:39:01;7.30;99.90
10660;DHT22;5378;53.206;13.316;2022-11-03T07:41:49;7.20;99.90
10660;DHT22;5378;53.206;13.316;2022-11-03T07:44:37;7.30;99.90
10660;DHT22;5378;53.206;13.316;2022-11-03T07:47:26;7.40;99.90
10660;DHT22;5378;53.206;13.316;2022-11-03T07:50:15;7.30;99.90
10660;DHT22;5378;53.206;13.316;2022-11-03T07:53:09;7.40;99.90
10660;DHT22;5378;53.206;13.316;2022-11-03T07:55:58;7.40;99.90
10660;DHT22;5378;53.206;13.316;2022-11-03T07:58:47;7.50;99.90
10660;DHT22;5378;53.206;13.316;2022-11-03T08:01:36;7.60;99.90
10660;DHT22;5378;53.206;13.316;2022-11-03T08:04:25;7.60;99.90
10660;DHT22;5378;53.206;13.316;2022-11-03T08:07:13;7.60;99.90
10660;DHT22;5378;53.206;13.316;2022-11-03T08:10:00;7.60;99.90
10660;DHT22;5378;53.206;13.316;2022-11-03T08:12:47;7.50;99.90
10660;DHT22;5378;53.206;13.316;2022-11-03T08:15:35;7.60;99.90
10660;DHT22;5378;53.206;13.316;2022-11-03T08:18:22;7.70;99.90
10660;DHT22;5378;53.206;13.316;2022-11-03T08:21:09;7.80;99.90
10660;DHT22;5378;53.206;13.316;2022-11-03T08:23:58;7.80;99.90
10660;DHT22;5378;53.206;13.316;2022-11-03T08:26:45;8.00;99.90
10660;DHT22;5378;53.206;13.316;2022-11-03T08:29:32;8.10;99.90
10660;DHT22;5378;53.206;13.316;2022-11-03T08:32:19;8.20;99.90
10660;DHT22;5378;53.206;13.316;2022-11-03T08:35:06;8.40;99.90
10660;DHT22;5378;53.206;13.316;2022-11-03T08:37:53;8.60;99.90
10660;DHT22;5378;53.206;13.316;2022-11-03T08:40:42;8.70;99.90
10660;DHT22;5378;53.206;13.316;2022-11-03T08:43:29;8.80;99.90
10660;DHT22;5378;53.206;13.316;2022-11-03T08:46:16;8.90;99.90
10660;DHT22;5378;53.206;13.316;2022-11-03T08:49:03;8.90;99.90
10660;DHT22;5378;53.206;13.316;2022-11-03T08:51:50;9.00;99.90
10660;DHT22;5378;53.206;13.316;2022-11-03T08:54:37;9.00;99.90
10660;DHT22;5378;53.206;13.316;2022-11-03T08:57:26;9.10;99.90
10660;DHT22;5378;53.206;13.316;2022-11-03T09:00:14;9.10;99.90
10660;DHT22;5378;53.206;13.316;2022-11-03T09:03:02;9.20;99.90
10660;DHT22;5378;53.206;13.316;2022-11-03T09:05:50;9.30;99.90
10660;DHT22;5378;53.206;13.316;2022-11-03T09:08:37;9.30;99.90
10660;DHT22;5378;53.206;13.316;2022-11-03T09:11:44;9.30;99.90
10660;DHT22;5378;53.206;13.316;2022-11-03T09:14:32;9.50;99.90
10660;DHT22;5378;53.206;13.316;2022-11-03T09:17:19;9.50;99.90
10660;DHT22;5378;53.206;13.316;2022-11-03T09:20:07;9.70;99.90
10660;DHT22;5378;53.206;13.316;2022-11-03T09:22:54;9.80;99.90
10660;DHT22;5378;53.206;13.316;2022-11-03T09:25:41;9.90;99.90
10660;DHT22;5378;53.206;13.316;2022-11-03T09:28:28;9.90;99.90
10660;DHT22;5378;53.206;13.316;2022-11-03T09:31:17;10.00;99.90
10660;DHT22;5378;53.206;13.316;2022-11-03T09:34:05;10.10;99.90
10660;DHT22;5378;53.206;13.316;2022-11-03T09:36:52;10.30;99.90
10660;DHT22;5378;53.206;13.316;2022-11-03T09:39:39;10.30;99.90
10660;DHT22;5378;53.206;13.316;2022-11-03T09:42:26;10.40;99.90
10660;DHT22;5378;53.206;13.316;2022-11-03T09:45:14;10.40;99.90
10660;DHT22;5378;53.206;13.316;2022-11-03T09:48:02;10.50;99.90
10660;DHT22;5378;53.206;13.316;2022-11-03T09:50:53;10.60;99.90
10660;DHT22;5378;53.206;13.316;2022-11-03T09:53:40;10.60;99.90
10660;DHT22;5378;53.206;13.316;2022-11-03T09:56:28;10.70;99.90
10660;DHT22;5378;53.206;13.316;2022-11-03T09:59:17;10.80;99.90
10660;DHT22;5378;53.206;13.316;2022-11-03T10:02:15;10.90;99.90
10660;DHT22;5378;53.206;13.316;2022-11-03T10:05:07;11.10;99.90
10660;DHT22;5378;53.206;13.316;2022-11-03T10:07:58;11.10;99.90
10660;DHT22;5378;53.206;13.316;2022-11-03T10:10:46;11.20;99.90
10660;DHT22;5378;53.206;13.316;2022-11-03T10:13:36;11.20;99.90
10660;DHT22;5378;53.206;13.316;2022-11-03T10:16:25;11.20;99.90
10660;DHT22;5378;53.206;13.316;2022-11-03T10:19:12;11.20;99.90
10660;DHT22;5378;53.206;13.316;2022-11-03T10:22:01;11.20;99.90
10660;DHT22;5378;53.206;13.316;2022-11-03T10:24:48;11.30;99.90
10660;DHT22;5378;53.206;13.316;2022-11-03T10:27:35;11.20;99.90
10660;DHT22;5378;53.206;13.316;2022-11-03T10:30:22;11.30;99.90
10660;DHT22;5378;53.206;13.316;2022-11-03T10:33:24;11.30;99.90
10660;DHT22;5378;53.206;13.316;2022-11-03T10:36:25;11.40;99.90
10660;DHT22;5378;53.206;13.316;2022-11-03T10:39:28;11.40;99.90
10660;DHT22;5378;53.206;13.316;2022-11-03T10:42:18;11.40;99.90
10660;DHT22;5378;53.206;13.316;2022-11-03T10:45:10;11.50;99.90
10660;DHT22;5378;53.206;13.316;2022-11-03T10:48:03;11.50;99.90
10660;DHT22;5378;53.206;13.316;2022-11-03T10:50:51;11.60;99.90
10660;DHT22;5378;53.206;13.316;2022-11-03T10:53:40;11.80;99.90
10660;DHT22;5378;53.206;13.316;2022-11-03T10:56:29;11.90;99.90
10660;DHT22;5378;53.206;13.316;2022-11-03T10:59:18;11.90;99.90
10660;DHT22;5378;53.206;13.316;2022-11-03T11:02:14;11.60;99.90
10660;DHT22;5378;53.206;13.316;2022-11-03T11:05:12;11.90;99.90
10660;DHT22;5378;53.206;13.316;2022-11-03T11:08:00;12.00;99.90
10660;DHT22;5378;53.206;13.316;2022-11-03T11:10:47;12.10;99.90
10660;DHT22;5378;53.206;13.316;2022-11-03T11:13:36;12.20;99.90
10660;DHT22;5378;53.206;13.316;2022-11-03T11:16:46;12.30;99.90
10660;DHT22;5378;53.206;13.316;2022-11-03T11:22:53;12.40;99.90
10660;DHT22;5378;53.206;13.316;2022-11-03T11:26:05;12.50;99.90
10660;DHT22;5378;53.206;13.316;2022-11-03T11:32:54;12.60;99.90
10660;DHT22;5378;53.206;13.316;2022-11-03T11:36:17;12.60;99.90
10660;DHT22;5378;53.206;13.316;2022-11-03T11:39:09;12.40;99.90
10660;DHT22;5378;53.206;13.316;2022-11-03T11:42:10;12.60;99.90
10660;DHT22;5378;53.206;13.316;2022-11-03T11:44:59;12.60;99.90
10660;DHT22;5378;53.206;13.316;2022-11-03T11:47:50;12.60;99.90
10660;DHT22;5378;53.206;13.316;2022-11-03T11:50:37;12.50;99.90
10660;DHT22;5378;53.206;13.316;2022-11-03T11:53:25;12.60;99.90
10660;DHT22;5378;53.206;13.316;2022-11-03T11:56:16;12.60;99.90
10660;DHT22;5378;53.206;13.316;2022-11-03T11:59:04;12.60;99.90
10660;DHT22;5378;53.206;13.316;2022-11-03T12:01:53;12.60;99.90
10660;DHT22;5378;53.206;13.316;2022-11-03T12:04:45;12.60;99.90
10660;DHT22;5378;53.206;13.316;2022-11-03T12:07:33;12.60;99.90
10660;DHT22;5378;53.206;13.316;2022-11-03T12:10:22;12.70;99.90
10660;DHT22;5378;53.206;13.316;2022-11-03T12:13:36;12.70;99.90
10660;DHT22;5378;53.206;13.316;2022-11-03T12:16:30;12.80;99.90
10660;DHT22;5378;53.206;13.316;2022-11-03T12:19:32;12.80;99.90
10660;DHT22;5378;53.206;13.316;2022-11-03T12:22:40;12.90;99.90
10660;DHT22;5378;53.206;13.316;2022-11-03T12:25:35;12.90;99.90
10660;DHT22;5378;53.206;13.316;2022-11-03T12:28:32;13.00;99.90
10660;DHT22;5378;53.206;13.316;2022-11-03T12:31:20;13.00;99.90
10660;DHT22;5378;53.206;13.316;2022-11-03T12:34:07;13.10;99.90
10660;DHT22;5378;53.206;13.316;2022-11-03T12:36:54;13.10;99.90
10660;DHT22;5378;53.206;13.316;2022-11-03T12:39:43;13.10;99.90
10660;DHT22;5378;53.206;13.316;2022-11-03T12:42:30;13.10;99.90
10660;DHT22;5378;53.206;13.316;2022-11-03T12:45:17;13.00;99.90
10660;DHT22;5378;53.206;13.316;2022-11-03T12:48:05;13.10;99.90
10660;DHT22;5378;53.206;13.316;2022-11-03T12:50:52;13.10;99.90
10660;DHT22;5378;53.206;13.316;2022-11-03T12:53:39;13.10;99.90
10660;DHT22;5378;53.206;13.316;2022-11-03T12:56:28;13.00;99.90
10660;DHT22;5378;53.206;13.316;2022-11-03T12:59:15;13.00;99.90
10660;DHT22;5378;53.206;13.316;2022-11-03T13:02:02;13.10;99.90
10660;DHT22;5378;53.206;13.316;2022-11-03T13:04:49;13.10;99.90
10660;DHT22;5378;53.206;13.316;2022-11-03T13:07:36;13.10;99.90
10660;DHT22;5378;53.206;13.316;2022-11-03T13:10:23;13.00;99.90
10660;DHT22;5378;53.206;13.316;2022-11-03T13:13:12;13.00;99.90
10660;DHT22;5378;53.206;13.316;2022-11-03T13:15:59;13.00;99.90
10660;DHT22;5378;53.206;13.316;2022-11-03T13:18:46;13.00;99.90
10660;DHT22;5378;53.206;13.316;2022-11-03T13:21:33;13.10;99.90
10660;DHT22;5378;53.206;13.316;2022-11-03T13:24:20;12.90;99.90
10660;DHT22;5378;53.206;13.316;2022-11-03T13:27:07;13.00;99.90
10660;DHT22;5378;53.206;13.316;2022-11-03T13:29:56;12.90;99.90
10660;DHT22;5378;53.206;13.316;2022-11-03T13:32:43;13.00;99.90
10660;DHT22;5378;53.206;13.316;2022-11-03T13:35:30;12.90;99.90
10660;DHT22;5378;53.206;13.316;2022-11-03T13:38:17;12.90;99.90
10660;DHT22;5378;53.206;13.316;2022-11-03T13:41:05;12.90;99.90
10660;DHT22;5378;53.206;13.316;2022-11-03T13:43:53;12.80;99.90
10660;DHT22;5378;53.206;13.316;2022-11-03T13:46:42;12.70;99.90
10660;DHT22;5378;53.206;13.316;2022-11-03T13:49:29;12.70;99.90
10660;DHT22;5378;53.206;13.316;2022-11-03T13:52:36;12.50;99.90
10660;DHT22;5378;53.206;13.316;2022-11-03T13:55:23;12.40;99.90
10660;DHT22;5378;53.206;13.316;2022-11-03T13:58:25;12.40;99.90
10660;DHT22;5378;53.206;13.316;2022-11-03T14:01:32;12.20;99.90
10660;DHT22;5378;53.206;13.316;2022-11-03T14:04:20;12.00;99.90
10660;DHT22;5378;53.206;13.316;2022-11-03T14:07:27;11.90;99.90
10660;DHT22;5378;53.206;13.316;2022-11-03T14:10:14;11.80;99.90
10660;DHT22;5378;53.206;13.316;2022-11-03T14:13:01;11.80;99.90
10660;DHT22;5378;53.206;13.316;2022-11-03T14:15:49;11.80;99.90
10660;DHT22;5378;53.206;13.316;2022-11-03T14:18:36;11.80;99.90
10660;DHT22;5378;53.206;13.316;2022-11-03T14:21:24;11.90;99.90
10660;DHT22;5378;53.206;13.316;2022-11-03T14:24:12;11.90;99.90
10660;DHT22;5378;53.206;13.316;2022-11-03T14:26:59;11.90;99.90
10660;DHT22;5378;53.206;13.316;2022-11-03T14:29:46;11.80;99.90
10660;DHT22;5378;53.206;13.316;2022-11-03T14:32:34;11.90;99.90
10660;DHT22;5378;53.206;13.316;2022-11-03T14:35:21;11.90;99.90
10660;DHT22;5378;53.206;13.316;2022-11-03T14:38:10;11.80;99.90
10660;DHT22;5378;53.206;13.316;2022-11-03T14:40:57;11.80;99.90
10660;DHT22;5378;53.206;13.316;2022-11-03T14:44:02;11.80;99.90
10660;DHT22;5378;53.206;13.316;2022-11-03T14:46:49;11.70;99.90
10660;DHT22;5378;53.206;13.316;2022-11-03T14:49:37;11.80;99.90
10660;DHT22;5378;53.206;13.316;2022-11-03T14:52:24;11.70;99.90
10660;DHT22;5378;53.206;13.316;2022-11-03T14:55:12;11.70;99.90
10660;DHT22;5378;53.206;13.316;2022-11-03T14:57:59;11.70;99.90
10660;DHT22;5378;53.206;13.316;2022-11-03T15:00:47;11.50;99.90
10660;DHT22;5378;53.206;13.316;2022-11-03T15:03:33;11.40;99.90
10660;DHT22;5378;53.206;13.316;2022-11-03T15:06:20;11.30;99.90
10660;DHT22;5378;53.206;13.316;2022-11-03T15:09:08;11.30;99.90
10660;DHT22;5378;53.206;13.316;2022-11-03T15:11:56;11.20;99.90
10660;DHT22;5378;53.206;13.316;2022-11-03T15:14:43;11.10;99.90
10660;DHT22;5378;53.206;13.316;2022-11-03T15:17:30;11.10;99.90
10660;DHT22;5378;53.206;13.316;2022-11-03T15:20:18;11.10;99.90
10660;DHT22;5378;53.206;13.316;2022-11-03T15:23:05;10.90;99.90
10660;DHT22;5378;53.206;13.316;2022-11-03T15:26:12;10.80;99.90
10660;DHT22;5378;53.206;13.316;2022-11-03T15:29:00;10.70;99.90
10660;DHT22;5378;53.206;13.316;2022-11-03T15:31:48;10.70;99.90
10660;DHT22;5378;53.206;13.316;2022-11-03T15:34:34;10.70;99.90
10660;DHT22;5378;53.206;13.316;2022-11-03T15:37:22;10.70;99.90
10660;DHT22;5378;53.206;13.316;2022-11-03T15:40:11;10.70;99.90
10660;DHT22;5378;53.206;13.316;2022-11-03T15:42:58;10.60;99.90
10660;DHT22;5378;53.206;13.316;2022-11-03T15:45:49;10.60;99.90
10660;DHT22;5378;53.206;13.316;2022-11-03T15:48:35;10.60;99.90
10660;DHT22;5378;53.206;13.316;2022-11-03T15:51:23;10.40;99.90
10660;DHT22;5378;53.206;13.316;2022-11-03T15:54:10;10.60;99.90
10660;DHT22;5378;53.206;13.316;2022-11-03T15:56:57;10.50;99.90
10660;DHT22;5378;53.206;13.316;2022-11-03T15:59:44;10.40;99.90
10660;DHT22;5378;53.206;13.316;2022-11-03T16:02:32;10.40;99.90
10660;DHT22;5378;53.206;13.316;2022-11-03T16:05:25;10.40;99.90
10660;DHT22;5378;53.206;13.316;2022-11-03T16:08:12;10.40;99.90
10660;DHT22;5378;53.206;13.316;2022-11-03T16:10:59;10.30;99.90
10660;DHT22;5378;53.206;13.316;2022-11-03T16:13:47;10.30;99.90
10660;DHT22;5378;53.206;13.316;2022-11-03T16:16:34;10.30;99.90
10660;DHT22;5378;53.206;13.316;2022-11-03T16:19:22;10.30;99.90
10660;DHT22;5378;53.206;13.316;2022-11-03T16:22:09;10.30;99.90
10660;DHT22;5378;53.206;13.316;2022-11-03T16:24:56;10.40;99.90
10660;DHT22;5378;53.206;13.316;2022-11-03T16:27:43;10.50;99.90
10660;DHT22;5378;53.206;13.316;2022-11-03T16:30:30;10.50;99.90
10660;DHT22;5378;53.206;13.316;2022-11-03T16:33:18;10.40;99.90
10660;DHT22;5378;53.206;13.316;2022-11-03T16:36:07;10.50;99.90
10660;DHT22;5378;53.206;13.316;2022-11-03T16:38:54;10.40;99.90
10660;DHT22;5378;53.206;13.316;2022-11-03T16:41:41;10.40;99.90
10660;DHT22;5378;53.206;13.316;2022-11-03T16:44:28;10.40;99.90
10660;DHT22;5378;53.206;13.316;2022-11-03T16:47:15;10.40;99.90
10660;DHT22;5378;53.206;13.316;2022-11-03T16:50:02;10.50;99.90
10660;DHT22;5378;53.206;13.316;2022-11-03T16:52:50;10.50;99.90
10660;DHT22;5378;53.206;13.316;2022-11-03T16:55:37;10.40;99.90
10660;DHT22;5378;53.206;13.316;2022-11-03T16:58:24;10.40;99.90
10660;DHT22;5378;53.206;13.316;2022-11-03T17:01:12;10.50;99.90
10660;DHT22;5378;53.206;13.316;2022-11-03T17:03:59;10.40;99.90
10660;DHT22;5378;53.206;13.316;2022-11-03T17:06:46;10.50;99.90
10660;DHT22;5378;53.206;13.316;2022-11-03T17:09:35;10.50;99.90
10660;DHT22;5378;53.206;13.316;2022-11-03T17:12:22;10.50;99.90
10660;DHT22;5378;53.206;13.316;2022-11-03T17:15:09;10.50;99.90
10660;DHT22;5378;53.206;13.316;2022-11-03T17:17:57;10.50;99.90
10660;DHT22;5378;53.206;13.316;2022-11-03T17:20:44;10.50;99.90
10660;DHT22;5378;53.206;13.316;2022-11-03T17:23:31;10.40;99.90
10660;DHT22;5378;53.206;13.316;2022-11-03T17:26:23;10.40;99.90
10660;DHT22;5378;53.206;13.316;2022-11-03T17:29:14;10.30;99.90
10660;DHT22;5378;53.206;13.316;2022-11-03T17:32:05;10.40;99.90
10660;DHT22;5378;53.206;13.316;2022-11-03T17:34:53;10.50;99.90
10660;DHT22;5378;53.206;13.316;2022-11-03T17:37:40;10.50;99.90
10660;DHT22;5378;53.206;13.316;2022-11-03T17:40:28;10.50;99.90
10660;DHT22;5378;53.206;13.316;2022-11-03T17:43:19;10.50;99.90
10660;DHT22;5378;53.206;13.316;2022-11-03T17:46:07;10.60;99.90
10660;DHT22;5378;53.206;13.316;2022-11-03T17:48:54;10.60;99.90
10660;DHT22;5378;53.206;13.316;2022-11-03T17:51:42;10.60;99.90
10660;DHT22;5378;53.206;13.316;2022-11-03T17:54:31;10.60;99.90
10660;DHT22;5378;53.206;13.316;2022-11-03T17:57:20;10.60;99.90
10660;DHT22;5378;53.206;13.316;2022-11-03T18:00:14;10.50;99.90
10660;DHT22;5378;53.206;13.316;2022-11-03T18:03:03;10.60;99.90
10660;DHT22;5378;53.206;13.316;2022-11-03T18:05:52;10.60;99.90
10660;DHT22;5378;53.206;13.316;2022-11-03T18:08:39;10.70;99.90
10660;DHT22;5378;53.206;13.316;2022-11-03T18:11:27;10.60;99.90
10660;DHT22;5378;53.206;13.316;2022-11-03T18:14:33;10.70;99.90
10660;DHT22;5378;53.206;13.316;2022-11-03T18:17:21;10.70;99.90